Terminal Aerodrome Forecast
Issued by NWS Shreveport, LA

Home | Current Version | Previous Version | Text Only | Print | Product List | Glossary On
Versions: 1 2 3 4 5 6 7 8 9 10 11 12 13 14 15 16 17 18 19 20
000
FTUS44 KSHV 202300
TAFELD
TAF
KELD 202340Z 2100/2124 10005KT P6SM FEW100
     FM210200 00000KT P6SM FEW250
      TEMPO 2108/2112 3SM BR
     FM211500 30005KT P6SM SCT040 SCT250=

USA.gov is the U.S. government's official web portal to all federal, state and local government web resources and services.